Time;durP1;ratioP1;P1;durP2;ratioP2;P2;SDS_P1;SDS_P2;PMS_P1;PMS_P2;Temp;Humidity;BMP_temperature;BMP_pressure;BME280_temperature;BME280_humidity;BME280_pressure;Samples;Min_cycle;Max_cycle;Signal;HPM_P1;HPM_P2
2022/09/12 10:50:42;;;;;;;5.60;3.75;;;25.30;99.90;;;-144.05;44.66;125687.94;4918565;29;20067;-90
2022/09/12 10:53:24;;;;;;;3.97;3.42;;;24.90;99.90;;;-144.05;44.92;125687.94;4934728;29;20047;-88
2022/09/12 10:56:15;;;;;;;4.25;3.17;;;24.60;99.90;;;-144.05;44.14;125687.94;4934884;29;20040;-88
2022/09/12 10:59:27;;;;;;;4.47;2.55;;;24.80;99.90;;;-144.05;44.20;125687.94;4934523;29;20038;-88
2022/09/12 11:02:25;;;;;;;5.10;2.30;;;25.10;99.90;;;-144.05;43.67;125687.94;4920328;29;20055;-87
2022/09/12 11:05:21;;;;;;;3.97;2.50;;;25.60;99.90;;;-144.05;40.86;125687.94;4921594;29;20543;-88
2022/09/12 11:08:33;;;;;;;4.38;2.45;;;25.50;99.90;;;-144.05;42.51;125687.94;4924944;29;20032;-89
2022/09/12 11:11:45;;;;;;;4.28;2.50;;;25.30;99.90;;;-144.05;42.08;125687.94;4938681;29;20067;-88
2022/09/12 11:14:45;;;;;;;3.53;2.58;;;25.40;99.90;;;-144.05;41.21;125687.94;4925197;29;20024;-89
2022/09/12 11:18:19;;;;;;;3.40;2.17;;;25.50;99.90;;;-144.05;40.53;125687.94;4923202;29;20079;-89
2022/09/12 11:21:13;;;;;;;4.05;2.40;;;25.60;99.90;;;-144.05;40.37;125687.94;4907511;29;20040;-85
2022/09/12 11:24:24;;;;;;;2.45;2.25;;;25.90;99.90;;;-144.05;39.39;125687.94;4923751;29;20064;-88
2022/09/12 11:27:43;;;;;;;2.28;2.08;;;26.10;99.90;;;-144.05;38.94;125687.94;4906130;29;20052;-89
2022/09/12 11:30:16;;;;;;;2.58;1.92;;;26.10;99.90;;;-144.05;39.99;125687.94;4925702;29;20032;-91
2022/09/12 11:33:37;;;;;;;4.20;2.17;;;25.90;99.90;;;-144.05;39.12;125687.94;4924629;29;20036;-90
2022/09/12 11:36:23;;;;;;;2.38;2.17;;;25.80;99.90;;;-144.05;39.38;125687.94;4925934;29;20024;-88
2022/09/12 11:39:08;;;;;;;2.35;2.15;;;25.70;99.90;;;-144.05;39.16;125687.94;4938077;29;20048;-85
2022/09/12 11:41:44;;;;;;;4.25;2.25;;;25.60;99.90;;;-144.05;39.27;125687.94;4941710;29;20048;-84
2022/09/12 11:44:35;;;;;;;5.95;2.00;;;26.00;99.90;;;-144.05;38.67;125687.94;4940510;29;20036;-91
2022/09/12 11:47:11;;;;;;;4.90;2.40;;;26.20;99.90;;;-144.05;39.50;125687.94;4929659;29;20056;-88
2022/09/12 11:49:57;;;;;;;4.63;2.70;;;26.00;99.90;;;-144.05;38.50;125687.94;4932487;29;20032;-87
2022/09/12 11:52:32;;;;;;;3.60;2.20;;;26.20;99.90;;;-144.05;38.41;125687.94;4933632;29;20081;-87
2022/09/12 11:55:31;;;;;;;4.05;2.35;;;26.20;99.90;;;-144.05;38.46;125687.94;4928551;29;20040;-88
2022/09/12 11:57:58;;;;;;;3.63;2.33;;;26.30;99.90;;;-144.05;37.71;125687.94;4926332;29;20107;-87
2022/09/12 12:01:34;;;;;;;3.47;2.08;;;26.40;99.90;;;-144.05;37.44;125687.94;4924642;29;20028;-88
2022/09/12 12:04:18;;;;;;;2.53;2.10;;;25.90;99.90;;;-144.05;37.01;125687.94;4911745;29;20054;-90
2022/09/12 12:07:10;;;;;;;5.72;2.80;;;26.00;99.90;;;-144.05;38.06;125687.94;4923436;29;20064;-88
2022/09/12 12:09:51;;;;;;;3.65;2.25;;;26.10;99.90;;;-144.05;36.84;125687.94;4922609;29;20040;-90
2022/09/12 12:12:28;;;;;;;2.85;2.53;;;26.20;99.90;;;-144.05;36.76;125687.94;4922646;29;20435;-88
2022/09/12 12:15:05;;;;;;;3.28;2.17;;;26.30;99.90;;;-144.05;38.25;125687.94;4922352;29;20029;-87
2022/09/12 12:17:34;;;;;;;2.70;2.20;;;26.00;99.90;;;-144.05;37.77;125687.94;4923341;29;20083;-86
2022/09/12 12:20:04;;;;;;;3.75;2.33;;;25.90;99.90;;;-144.05;38.40;125687.94;4922773;29;20495;-89
2022/09/12 12:22:31;;;;;;;4.43;2.30;;;26.10;99.90;;;-144.05;39.19;125687.94;4922149;29;20056;-88
2022/09/12 12:25:12;;;;;;;3.58;2.42;;;26.10;99.90;;;-144.05;38.20;125687.94;4922771;29;20020;-88
2022/09/12 12:28:04;;;;;;;4.80;2.70;;;26.40;99.90;;;-144.05;37.72;125687.94;4922249;29;20090;-90
2022/09/12 12:30:30;;;;;;;3.40;2.58;;;26.40;99.90;;;-144.05;36.59;125687.94;4923739;29;20036;-89
2022/09/12 12:33:26;;;;;;;3.15;2.05;;;26.50;99.90;;;-144.05;36.92;125687.94;4922767;29;20032;-89
2022/09/12 12:36:07;;;;;;;2.70;2.10;;;26.40;99.90;;;-144.05;37.91;125687.94;4922592;29;20043;-89
2022/09/12 12:38:41;;;;;;;2.17;1.88;;;26.80;99.90;;;-144.05;36.36;125687.94;4921918;29;20028;-88
2022/09/12 12:41:16;;;;;;;4.95;2.20;;;27.00;99.90;;;-144.05;34.53;125687.94;4922338;29;20035;-85
2022/09/12 12:43:52;;;;;;;4.68;2.00;;;26.80;98.50;;;-144.05;34.63;125687.94;4924126;29;20040;-88
2022/09/12 12:46:27;;;;;;;4.13;2.47;;;26.60;97.40;;;-144.05;36.20;125687.94;4924084;29;20476;-90
2022/09/12 12:49:29;;;;;;;3.60;2.35;;;26.60;99.90;;;-144.05;35.97;125687.94;4923453;29;20067;-88
2022/09/12 12:52:00;;;;;;;3.45;2.38;;;26.70;99.70;;;-144.05;35.46;125687.94;4923751;29;20122;-91
2022/09/12 12:54:44;;;;;;;2.38;2.17;;;26.80;99.70;;;-144.05;35.07;125687.94;4926101;29;20035;-88
2022/09/12 12:57:49;;;;;;;3.15;2.35;;;26.40;98.10;;;-144.05;36.59;125687.94;4923694;29;20119;-88
2022/09/12 13:00:33;;;;;;;3.15;2.50;;;25.90;99.90;;;-144.05;37.16;125687.94;4923343;29;20503;-89
2022/09/12 13:03:07;;;;;;;4.03;2.10;;;25.90;99.90;;;-144.05;36.30;125687.94;4920451;29;20039;-88
2022/09/12 13:05:58;;;;;;;3.25;2.20;;;26.30;99.90;;;-144.05;36.43;125687.94;4920312;29;20028;-87
2022/09/12 13:08:45;;;;;;;3.58;2.30;;;26.60;99.90;;;-144.05;35.40;125687.94;4919677;29;20032;-86
2022/09/12 13:11:32;;;;;;;2.80;2.35;;;26.50;99.20;;;-144.05;35.26;125687.94;4921900;29;20083;-86
2022/09/12 13:14:06;;;;;;;3.50;2.40;;;26.10;97.90;;;-144.05;35.99;125687.94;4925970;29;20072;-88
2022/09/12 13:16:55;;;;;;;5.80;2.50;;;25.90;99.80;;;-144.05;37.06;125687.94;4919882;29;20494;-91
2022/09/12 13:19:35;;;;;;;6.53;2.78;;;25.80;99.90;;;-144.05;36.53;125687.94;4921036;29;20048;-86
2022/09/12 13:22:08;;;;;;;2.97;2.10;;;25.70;99.60;;;-144.05;36.94;125687.94;4919949;29;20368;-89
2022/09/12 13:24:47;;;;;;;4.25;2.30;;;25.50;99.90;;;-144.05;36.73;125687.94;4920758;29;20070;-88
2022/09/12 13:27:24;;;;;;;4.30;2.70;;;25.60;99.90;;;-144.05;36.36;125687.94;4920739;29;20092;-89
2022/09/12 13:30:14;;;;;;;2.45;2.20;;;25.80;99.90;;;-144.05;35.03;125687.94;4920544;29;20032;-89
2022/09/12 13:32:43;;;;;;;2.63;2.35;;;25.90;98.70;;;-144.05;34.78;125687.94;4921204;29;20131;-88
2022/09/12 13:36:15;;;;;;;4.10;2.55;;;26.10;98.20;;;-144.05;34.68;125687.94;4920243;29;20056;-88
2022/09/12 13:39:28;;;;;;;2.47;1.98;;;26.30;98.00;;;-144.05;34.17;125687.94;4885446;29;20065;-89
2022/09/12 13:42:39;;;;;;;4.07;2.40;;;26.10;95.80;;;-144.05;35.57;125687.94;4904551;29;20405;-88
2022/09/12 13:45:20;;;;;;;3.53;2.55;;;25.90;97.00;;;-144.05;35.57;125687.94;4921737;29;20091;-89
2022/09/12 13:47:56;;;;;;;2.97;2.15;;;25.70;97.80;;;-144.05;35.27;125687.94;4922974;29;20039;-90
2022/09/12 13:50:29;;;;;;;3.92;2.25;;;25.70;97.50;;;-144.05;35.08;125687.94;4924260;29;20115;-88
2022/09/12 13:53:04;;;;;;;3.08;2.33;;;25.60;96.90;;;-144.05;35.66;125687.94;4923133;29;20021;-87
2022/09/12 13:55:41;;;;;;;3.17;2.53;;;25.50;98.20;;;-144.05;36.37;125687.94;4921931;29;20039;-88
2022/09/12 13:58:19;;;;;;;2.92;2.08;;;25.60;99.10;;;-144.05;35.40;125687.94;4925424;29;20068;-89
2022/09/12 14:00:46;;;;;;;2.53;2.22;;;25.50;98.10;;;-144.05;35.94;125687.94;4921907;29;20032;-87
2022/09/12 14:06:12;;;;;;;4.60;2.28;;;25.40;97.30;;;-144.05;35.43;125687.94;4922110;29;20099;-91
2022/09/12 14:08:42;;;;;;;2.35;2.10;;;25.20;97.20;;;-144.05;36.24;125687.94;4921296;29;20051;-88
2022/09/12 14:11:15;;;;;;;2.25;2.00;;;25.10;98.80;;;-144.05;36.44;125687.94;4923835;29;20028;-88
2022/09/12 14:13:41;;;;;;;2.30;1.95;;;25.20;98.50;;;-144.05;35.92;125687.94;4919126;29;20036;-88
2022/09/12 14:16:11;;;;;;;4.90;2.40;;;25.20;98.80;;;-144.05;35.78;125687.94;4918293;29;20357;-90
2022/09/12 14:18:43;;;;;;;2.38;2.17;;;25.30;98.30;;;-144.05;35.49;125687.94;4920036;29;20060;-86
2022/09/12 14:21:29;;;;;;;2.70;2.25;;;25.20;97.40;;;-144.05;35.56;125687.94;4921277;29;20472;-88
2022/09/12 14:23:56;;;;;;;4.00;2.30;;;25.10;97.10;;;-144.05;35.56;125687.94;4921792;29;20090;-90
2022/09/12 14:26:26;;;;;;;4.00;2.13;;;25.00;97.00;;;-144.05;35.92;125687.94;4922537;29;20396;-89
2022/09/12 14:28:53;;;;;;;2.85;2.50;;;24.90;98.10;;;-144.05;35.93;125687.94;4923217;29;20403;-88
2022/09/12 14:31:35;;;;;;;2.50;2.28;;;24.80;97.50;;;-144.05;36.68;125687.94;4918720;29;20029;-91
2022/09/12 14:34:17;;;;;;;2.80;2.20;;;24.80;98.90;;;-144.05;36.62;125687.94;4919342;29;20032;-92
2022/09/12 14:36:55;;;;;;;2.35;2.15;;;24.80;99.10;;;-144.05;36.54;125687.94;4920065;29;20485;-87
2022/09/12 14:39:40;;;;;;;4.32;2.50;;;24.80;99.20;;;-144.05;35.17;125687.94;4922145;29;20036;-89
2022/09/12 14:42:17;;;;;;;4.25;2.22;;;24.80;97.50;;;-144.05;36.61;125687.94;4924143;29;20100;-87
2022/09/12 14:45:04;;;;;;;2.65;1.92;;;24.70;98.50;;;-144.05;37.02;125687.94;4925358;29;20040;-87
2022/09/12 14:47:43;;;;;;;2.58;2.25;;;24.60;98.80;;;-144.05;37.15;125687.94;4924054;29;20032;-89
2022/09/12 14:50:25;;;;;;;2.42;2.10;;;24.60;99.50;;;-144.05;35.99;125687.94;4924428;29;20511;-86
2022/09/12 14:53:23;;;;;;;3.78;2.42;;;24.50;97.60;;;-144.05;36.23;125687.94;4924889;29;20032;-87
2022/09/12 14:56:09;;;;;;;2.60;2.10;;;24.40;98.00;;;-144.05;36.18;125687.94;4923910;29;20068;-87
2022/09/12 14:58:36;;;;;;;3.53;2.10;;;24.40;98.10;;;-144.05;36.91;125687.94;4925543;29;20028;-86
2022/09/12 15:01:05;;;;;;;2.20;2.00;;;24.40;99.10;;;-144.05;37.00;125687.94;4924893;29;20024;-90
2022/09/12 15:03:50;;;;;;;3.97;2.00;;;24.40;99.20;;;-144.05;36.41;125687.94;4925385;29;20051;-89
2022/09/12 15:06:31;;;;;;;3.28;1.98;;;24.50;98.20;;;-144.05;36.74;125687.94;4928535;29;20052;-88
2022/09/12 15:09:06;;;;;;;2.75;2.10;;;24.50;98.70;;;-144.05;37.23;125687.94;4923406;29;20028;-88
2022/09/12 15:11:32;;;;;;;2.40;2.00;;;24.50;99.40;;;-144.05;36.85;125687.94;4924320;29;20223;-89
2022/09/12 15:14:12;;;;;;;2.67;1.80;;;24.50;98.60;;;-144.05;36.25;125687.94;4925717;29;20032;-87
2022/09/12 15:16:38;;;;;;;3.17;2.13;;;24.50;97.90;;;-144.05;36.02;125687.94;4932262;29;20388;-88
2022/09/12 15:19:04;;;;;;;2.20;2.00;;;24.40;97.50;;;-144.05;36.59;125687.94;4930830;29;20051;-90
2022/09/12 15:21:30;;;;;;;2.90;2.20;;;24.40;98.20;;;-144.05;37.02;125687.94;4927004;29;20044;-87
2022/09/12 15:23:59;;;;;;;2.50;2.00;;;24.40;99.10;;;-144.05;36.59;125687.94;4925009;29;20032;-86
2022/09/12 15:26:29;;;;;;;2.78;2.15;;;24.30;97.80;;;-144.05;36.37;125687.94;4925128;29;20091;-87
2022/09/12 15:28:55;;;;;;;3.17;2.13;;;24.20;97.80;;;-144.05;37.06;125687.94;4924406;29;20055;-89
2022/09/12 15:31:31;;;;;;;2.85;2.13;;;24.10;98.90;;;-144.05;36.90;125687.94;4924174;29;20032;-90
2022/09/12 15:34:01;;;;;;;2.20;2.00;;;24.10;98.90;;;-144.05;36.63;125687.94;4923766;29;20032;-87
2022/09/12 15:36:28;;;;;;;3.55;2.22;;;24.00;97.70;;;-144.05;37.15;125687.94;4925445;29;20036;-90
2022/09/12 15:38:55;;;;;;;3.35;2.20;;;23.90;98.50;;;-144.05;36.70;125687.94;4925098;29;20051;-84
2022/09/12 15:41:37;;;;;;;2.67;1.90;;;23.80;97.80;;;-144.05;36.53;125687.94;4923749;29;20071;-89
2022/09/12 15:44:11;;;;;;;2.80;1.90;;;23.80;98.10;;;-144.05;37.89;125687.94;4923046;29;20028;-89
2022/09/12 15:46:38;;;;;;;2.50;2.10;;;23.70;99.10;;;-144.05;37.01;125687.94;4923457;29;20028;-88
2022/09/12 15:49:04;;;;;;;2.90;1.95;;;23.70;98.50;;;-144.05;37.40;125687.94;4922680;29;20225;-90
2022/09/12 15:51:29;;;;;;;2.28;2.05;;;23.60;99.10;;;-144.05;37.11;125687.94;4921655;29;20465;-88
2022/09/12 15:53:55;;;;;;;4.40;2.10;;;23.60;98.60;;;-144.05;37.44;125687.94;4922118;29;20028;-90
2022/09/12 15:56:22;;;;;;;3.78;1.83;;;23.50;98.90;;;-144.05;37.54;125687.94;4923142;29;20037;-88
2022/09/12 15:58:48;;;;;;;3.53;2.17;;;23.50;98.90;;;-144.05;38.09;125687.94;4923380;29;20039;-90
2022/09/12 16:01:17;;;;;;;2.45;2.00;;;23.50;99.80;;;-144.05;37.79;125687.94;4922098;29;20039;-87
2022/09/12 16:03:46;;;;;;;2.75;1.90;;;23.50;99.30;;;-144.05;37.91;125687.94;4921762;29;20168;-90
2022/09/12 16:06:14;;;;;;;2.35;1.80;;;23.40;99.30;;;-144.05;37.76;125687.94;4921798;29;20036;-90
2022/09/12 16:08:40;;;;;;;2.38;1.83;;;23.40;99.20;;;-144.05;38.53;125687.94;4922474;29;20628;-90
2022/09/12 16:11:26;;;;;;;2.38;1.92;;;23.30;99.90;;;-144.05;37.98;125687.94;4922153;29;20091;-89
2022/09/12 16:13:55;;;;;;;3.28;2.03;;;23.30;99.90;;;-144.05;38.65;125687.94;4922389;29;20036;-90
2022/09/12 16:16:21;;;;;;;2.25;1.95;;;23.30;99.90;;;-144.05;38.61;125687.94;4922037;29;20040;-88
2022/09/12 16:18:47;;;;;;;3.13;2.15;;;23.20;99.90;;;-144.05;38.65;125687.94;4923274;29;20028;-89
2022/09/12 16:21:13;;;;;;;3.95;2.00;;;23.10;99.90;;;-144.05;38.74;125687.94;4925996;29;20043;-89
2022/09/12 16:23:43;;;;;;;3.22;2.00;;;23.10;99.90;;;-144.05;38.78;125687.94;4924487;29;20068;-91
2022/09/12 16:26:09;;;;;;;3.72;2.00;;;23.00;99.90;;;-144.05;39.03;125687.94;4925064;29;20074;-92
2022/09/12 16:28:35;;;;;;;1.88;1.65;;;22.90;99.90;;;-144.05;39.25;125687.94;4924414;29;20485;-91
2022/09/12 16:31:06;;;;;;;2.95;2.65;;;22.80;99.90;;;-144.05;39.32;125687.94;4925704;29;20036;-90
2022/09/12 16:33:33;;;;;;;3.10;1.67;;;22.90;99.90;;;-144.05;39.22;125687.94;4925501;29;20039;-88
2022/09/12 16:36:08;;;;;;;3.00;2.00;;;22.80;99.90;;;-144.05;38.59;125687.94;4927946;29;20028;-90
2022/09/12 16:38:43;;;;;;;2.90;1.57;;;22.80;99.90;;;-144.05;38.56;125687.94;4926909;29;20186;-90
2022/09/12 16:41:10;;;;;;;2.10;1.90;;;22.80;99.90;;;-144.05;38.40;125687.94;4927605;29;20063;-91
2022/09/12 16:43:36;;;;;;;2.30;1.83;;;22.80;99.90;;;-144.05;38.48;125687.94;4932804;29;20039;-89
2022/09/12 16:46:10;;;;;;;2.42;1.95;;;22.80;99.90;;;-144.05;39.15;125687.94;4934930;29;20036;-90
2022/09/12 16:48:41;;;;;;;2.28;1.98;;;22.80;99.90;;;-144.05;39.11;125687.94;4939034;29;20067;-88
2022/09/12 16:51:07;;;;;;;2.08;1.80;;;22.70;99.90;;;-144.05;39.27;125687.94;4941000;29;20040;-89
2022/09/12 16:53:36;;;;;;;4.30;2.33;;;22.70;99.90;;;-144.05;39.54;125687.94;4940800;29;20032;-89
2022/09/12 16:56:05;;;;;;;2.33;2.10;;;22.60;99.90;;;-144.05;40.00;125687.94;4940674;29;20092;-88
2022/09/12 16:58:39;;;;;;;2.53;1.98;;;22.60;99.90;;;-144.05;39.94;125687.94;4932966;29;20111;-88
2022/09/12 17:01:13;;;;;;;2.45;1.85;;;22.50;99.90;;;-144.05;40.05;125687.94;4923646;29;20115;-88
2022/09/12 17:03:41;;;;;;;3.08;2.15;;;22.40;99.90;;;-144.05;40.20;125687.94;4922790;29;20028;-88
2022/09/12 17:06:15;;;;;;;4.15;1.83;;;22.40;99.90;;;-144.05;40.57;125687.94;4923568;29;20040;-89
2022/09/12 17:08:49;;;;;;;3.13;2.08;;;22.30;99.90;;;-144.05;40.84;125687.94;4923176;29;20039;-89
2022/09/12 17:11:24;;;;;;;3.03;2.20;;;22.20;99.90;;;-144.05;40.95;125687.94;4923316;29;20115;-88
2022/09/12 17:13:55;;;;;;;3.45;2.30;;;22.10;99.90;;;-144.05;41.38;125687.94;4923050;29;20038;-90
2022/09/12 17:16:23;;;;;;;2.28;1.95;;;22.00;99.90;;;-144.05;41.60;125687.94;4922726;29;20035;-90
2022/09/12 17:18:51;;;;;;;4.40;2.28;;;22.00;99.90;;;-144.05;41.55;125687.94;4922429;29;20032;-91
2022/09/12 17:21:19;;;;;;;3.03;2.38;;;21.90;99.90;;;-144.05;41.77;125687.94;4922545;29;20453;-90
2022/09/12 17:23:45;;;;;;;4.78;2.55;;;21.80;99.90;;;-144.05;41.86;125687.94;4923187;29;20056;-88
2022/09/12 17:26:13;;;;;;;2.90;2.17;;;21.70;99.90;;;-144.05;41.98;125687.94;4922478;29;20028;-89
2022/09/12 17:28:41;;;;;;;2.25;1.90;;;21.70;99.90;;;-144.05;42.55;125687.94;4922168;29;20047;-89
2022/09/12 17:31:12;;;;;;;2.75;2.40;;;21.60;99.90;;;-144.05;42.71;125687.94;4921922;29;20035;-90
2022/09/12 17:33:39;;;;;;;2.63;2.28;;;21.50;99.90;;;-144.05;43.28;125687.94;4921967;29;20031;-88
2022/09/12 17:36:12;;;;;;;2.50;1.80;;;21.40;99.90;;;-144.05;43.68;125687.94;4921348;29;20036;-90
2022/09/12 17:38:38;;;;;;;2.88;2.13;;;21.30;99.90;;;-144.05;44.23;125687.94;4922883;29;20040;-89
2022/09/12 17:41:16;;;;;;;3.42;2.50;;;21.20;99.90;;;-144.05;44.82;125687.94;4921323;29;20032;-91
2022/09/12 17:43:44;;;;;;;3.38;2.47;;;21.00;99.90;;;-144.05;44.82;125687.94;4921822;29;20412;-89
2022/09/12 17:46:11;;;;;;;3.67;2.45;;;20.90;99.90;;;-144.05;45.04;125687.94;4921175;29;20089;-90
2022/09/12 17:48:37;;;;;;;4.25;2.38;;;20.80;99.90;;;-144.05;45.60;125687.94;4923266;29;20044;-89
2022/09/12 17:51:14;;;;;;;3.50;2.50;;;20.70;99.90;;;-144.05;45.72;125687.94;4926699;29;20119;-89
2022/09/12 17:53:41;;;;;;;4.55;2.40;;;20.60;99.90;;;-144.05;45.45;125687.94;4926789;29;20091;-88
2022/09/12 17:56:09;;;;;;;3.92;2.50;;;20.60;99.90;;;-144.05;45.58;125687.94;4927779;29;20047;-88
2022/09/12 17:58:36;;;;;;;2.90;2.60;;;20.60;99.90;;;-144.05;45.60;125687.94;4932637;29;20061;-90
2022/09/12 18:03:59;;;;;;;3.55;2.50;;;20.50;99.90;;;-144.05;46.50;125687.94;4933973;29;20476;-90
2022/09/12 18:06:28;;;;;;;3.33;2.38;;;20.40;99.90;;;-144.05;46.14;125687.94;4930471;29;20031;-89
2022/09/12 18:08:54;;;;;;;3.53;2.40;;;20.50;99.90;;;-144.05;45.79;125687.94;4935994;29;20047;-92
2022/09/12 18:11:20;;;;;;;5.70;2.15;;;20.50;99.90;;;-144.05;45.49;125687.94;4930313;29;20046;-90
2022/09/12 18:13:46;;;;;;;3.75;2.47;;;20.50;99.90;;;-144.05;45.78;125687.94;4927450;29;20028;-89
2022/09/12 18:16:13;;;;;;;4.80;2.35;;;20.60;99.90;;;-144.05;46.14;125687.94;4921744;29;20032;-91
2022/09/12 18:18:40;;;;;;;4.53;2.40;;;20.50;99.90;;;-144.05;46.04;125687.94;4922752;29;20040;-90
2022/09/12 18:21:09;;;;;;;3.03;2.40;;;20.50;99.90;;;-144.05;45.78;125687.94;4922492;29;20028;-91
2022/09/12 18:23:35;;;;;;;5.10;2.70;;;20.50;99.90;;;-144.05;45.87;125687.94;4922135;29;20032;-88
2022/09/12 18:26:06;;;;;;;2.70;2.47;;;20.50;99.90;;;-144.05;45.99;125687.94;4923493;29;20064;-89
2022/09/12 18:28:37;;;;;;;2.83;2.20;;;20.50;99.90;;;-144.05;45.88;125687.94;4924110;29;20036;-89
2022/09/12 18:31:12;;;;;;;3.33;2.47;;;20.50;99.90;;;-144.05;46.08;125687.94;4924520;29;20048;-90
2022/09/12 18:33:38;;;;;;;3.93;2.97;;;20.40;99.90;;;-144.05;45.87;125687.94;4925506;29;20035;-88
2022/09/12 18:36:06;;;;;;;3.60;2.65;;;20.40;99.90;;;-144.05;45.56;125687.94;4924014;29;20284;-90
2022/09/12 18:38:33;;;;;;;3.17;2.58;;;20.50;99.90;;;-144.05;45.70;125687.94;4922518;29;20075;-89
2022/09/12 18:41:08;;;;;;;3.58;2.85;;;20.40;99.90;;;-144.05;45.96;125687.94;4923335;29;20084;-88
2022/09/12 18:43:34;;;;;;;;;;;20.40;99.90;;;-144.05;46.37;125687.94;4924341;29;20044;-88
2022/09/12 18:46:18;;;;;;;3.40;2.60;;;20.30;99.90;;;-144.05;47.45;125687.94;4940182;29;19919;-87
2022/09/12 18:48:45;;;;;;;5.10;3.38;;;20.10;99.90;;;-144.05;49.06;125687.94;4929726;29;20044;-89
2022/09/12 18:51:19;;;;;;;3.58;2.97;;;19.80;99.90;;;-144.05;50.00;125687.94;4933032;29;20028;-87
2022/09/12 18:53:55;;;;;;;4.53;2.83;;;19.60;99.90;;;-144.05;51.59;125687.94;4930677;29;20028;-88
2022/09/12 18:56:26;;;;;;;3.67;2.78;;;19.30;99.90;;;-144.05;52.02;125687.94;4931650;29;20040;-87
2022/09/12 18:58:55;;;;;;;3.78;2.80;;;19.10;99.90;;;-144.05;52.04;125687.94;4931209;29;20032;-88
2022/09/12 19:01:30;;;;;;;3.38;2.65;;;18.90;99.90;;;-144.05;51.80;125687.94;4929793;29;20078;-88
2022/09/12 19:03:57;;;;;;;2.88;2.58;;;18.90;99.90;;;-144.05;50.60;125687.94;4931685;29;20039;-89
2022/09/12 19:06:29;;;;;;;4.95;3.10;;;19.10;99.90;;;-144.05;50.43;125687.94;4929258;29;20036;-87
2022/09/12 19:08:57;;;;;;;3.45;2.97;;;19.10;99.90;;;-144.05;51.40;125687.94;4929688;29;20095;-88
2022/09/12 19:11:27;;;;;;;8.70;3.28;;;19.10;99.90;;;-144.05;53.68;125687.94;4929731;29;20024;-89
2022/09/12 19:13:55;;;;;;;5.30;3.25;;;18.90;99.90;;;-144.05;54.30;125687.94;4930109;29;20059;-87
2022/09/12 19:16:27;;;;;;;3.95;3.15;;;18.70;99.90;;;-144.05;53.84;125687.94;4928904;29;20032;-87
2022/09/12 19:18:56;;;;;;;4.95;3.55;;;18.70;99.90;;;-144.05;54.16;125687.94;4929130;29;20084;-89
2022/09/12 19:21:28;;;;;;;4.60;3.55;;;18.60;99.90;;;-144.05;54.33;125687.94;4929524;29;20168;-88
2022/09/12 19:24:04;;;;;;;5.38;3.13;;;18.50;99.90;;;-144.05;56.00;125687.94;4929489;29;20064;-91
2022/09/12 19:26:31;;;;;;;4.53;3.25;;;18.40;99.90;;;-144.05;56.64;125687.94;4931261;29;20062;-88
2022/09/12 19:28:57;;;;;;;5.53;3.72;;;18.30;99.90;;;-144.05;55.41;125687.94;4932199;29;20060;-87
2022/09/12 19:31:24;;;;;;;5.03;3.22;;;18.40;99.90;;;-144.05;53.96;125687.94;4933262;29;20032;-89
2022/09/12 19:33:51;;;;;;;5.53;4.13;;;18.50;99.90;;;-144.05;53.90;125687.94;4935362;29;20079;-90
2022/09/12 19:36:20;;;;;;;4.70;3.65;;;18.60;99.90;;;-144.05;52.78;125687.94;4937034;29;20043;-89
2022/09/12 19:38:46;;;;;;;6.15;3.42;;;18.80;99.90;;;-144.05;53.84;125687.94;4934552;29;20091;-88
2022/09/12 19:41:13;;;;;;;5.07;3.65;;;18.80;99.90;;;-144.05;53.69;125687.94;4933400;29;20095;-89
2022/09/12 19:43:39;;;;;;;3.47;2.83;;;18.80;99.90;;;-144.05;52.92;125687.94;4930232;29;20043;-90
2022/09/12 19:46:06;;;;;;;4.20;3.13;;;18.90;99.90;;;-144.05;52.79;125687.94;4930259;29;20043;-90
2022/09/12 19:48:32;;;;;;;5.13;3.45;;;18.90;99.90;;;-144.05;52.67;125687.94;4930826;29;20183;-89
2022/09/12 19:51:04;;;;;;;3.95;3.00;;;18.90;99.90;;;-144.05;52.45;125687.94;4931459;29;20036;-88
2022/09/12 19:53:31;;;;;;;4.18;3.17;;;19.00;99.90;;;-144.05;52.63;125687.94;4929920;29;20063;-88
2022/09/12 19:56:03;;;;;;;4.63;3.20;;;19.00;99.90;;;-144.05;53.28;125687.94;4930989;29;20032;-87
2022/09/12 19:58:35;;;;;;;6.90;4.13;;;18.90;99.90;;;-144.05;55.23;125687.94;4930215;29;20051;-88
2022/09/12 20:01:23;;;;;;;6.72;3.78;;;18.80;99.90;;;-144.05;56.66;125687.94;4931238;29;20042;-89
2022/09/12 20:03:52;;;;;;;5.32;3.20;;;18.60;99.90;;;-144.05;56.32;125687.94;4930449;29;20117;-87
2022/09/12 20:06:19;;;;;;;8.50;4.60;;;18.50;99.90;;;-144.05;58.11;125687.94;4931081;29;20058;-88
2022/09/12 20:08:45;;;;;;;6.47;4.32;;;18.30;99.90;;;-144.05;58.94;125687.94;4933689;29;20024;-90
2022/09/12 20:11:16;;;;;;;8.73;3.78;;;18.10;99.90;;;-144.05;59.24;125687.94;4932930;29;20024;-90
2022/09/12 20:13:44;;;;;;;6.30;4.05;;;18.10;99.90;;;-144.05;59.23;125687.94;4931475;29;20508;-87
2022/09/12 20:16:23;;;;;;;5.07;4.10;;;17.90;99.90;;;-144.05;58.76;125687.94;4931693;29;20099;-88
2022/09/12 20:18:56;;;;;;;7.60;3.78;;;17.90;99.90;;;-144.05;58.45;125687.94;4930896;29;20055;-89
2022/09/12 20:21:30;;;;;;;5.47;4.15;;;17.90;99.90;;;-144.05;58.42;125687.94;4931507;29;20575;-87
2022/09/12 20:24:11;;;;;;;6.70;4.68;;;17.90;99.90;;;-144.05;58.27;125687.94;4932768;29;20123;-89
2022/09/12 20:26:37;;;;;;;5.43;3.70;;;18.00;99.90;;;-144.05;57.67;125687.94;4931437;29;20036;-88
2022/09/12 20:29:06;;;;;;;5.65;4.03;;;18.00;99.90;;;-144.05;57.25;125687.94;4933937;29;20049;-91
2022/09/12 20:31:34;;;;;;;5.45;3.65;;;18.10;99.90;;;-144.05;57.09;125687.94;4933649;29;20028;-88
2022/09/12 20:34:01;;;;;;;6.65;4.07;;;18.10;99.90;;;-144.05;57.08;125687.94;4934194;29;20051;-89
2022/09/12 20:36:27;;;;;;;9.00;4.25;;;18.10;99.90;;;-144.05;56.68;125687.94;4932653;29;20046;-87
2022/09/12 20:39:00;;;;;;;8.80;4.18;;;18.20;99.90;;;-144.05;56.69;125687.94;4929889;29;20036;-91
2022/09/12 20:41:36;;;;;;;10.27;3.97;;;18.30;99.90;;;-144.05;56.19;125687.94;4931435;29;20039;-88
2022/09/12 20:44:02;;;;;;;6.55;4.13;;;18.20;99.90;;;-144.05;56.37;125687.94;4935328;29;20082;-88
2022/09/12 20:46:28;;;;;;;6.40;3.95;;;18.30;99.90;;;-144.05;56.55;125687.94;4937912;29;20040;-88
2022/09/12 20:48:55;;;;;;;6.50;4.13;;;18.30;99.90;;;-144.05;57.05;125687.94;4935029;29;20460;-91
2022/09/12 20:51:23;;;;;;;6.50;3.80;;;18.30;99.90;;;-144.05;56.72;125687.94;4931011;29;20044;-91
2022/09/12 20:53:58;;;;;;;5.95;4.20;;;18.30;99.90;;;-144.05;56.11;125687.94;4927323;29;20032;-91
2022/09/12 20:56:27;;;;;;;4.28;3.60;;;18.40;99.90;;;-144.05;55.65;125687.94;4927742;29;20104;-89
2022/09/12 21:00:48;;;;;;;;;;;;;;;;;;;;;
2022/09/12 21:03:15;;;;;;;5.20;3.40;;;18.50;99.90;;;-144.05;54.75;125687.94;4876668;29;20076;-90
2022/09/12 21:05:43;;;;;;;5.00;3.50;;;18.60;99.90;;;-144.05;54.20;125687.94;4886858;29;20595;-90
2022/09/12 21:08:11;;;;;;;4.75;3.53;;;18.60;99.90;;;-144.05;53.60;125687.94;4940052;29;20452;-89
2022/09/12 21:10:40;;;;;;;4.90;3.45;;;18.70;99.90;;;-144.05;53.56;125687.94;4925082;29;20043;-90
2022/09/12 21:13:12;;;;;;;7.10;3.80;;;18.70;99.90;;;-144.05;53.34;125687.94;4927625;29;20036;-89
2022/09/12 21:15:40;;;;;;;5.07;3.83;;;18.80;99.90;;;-144.05;52.95;125687.94;4927793;29;20113;-88
2022/09/12 21:18:06;;;;;;;4.82;3.13;;;18.80;99.90;;;-144.05;52.34;125687.94;4928097;29;20480;-90
2022/09/12 21:20:33;;;;;;;4.35;3.15;;;19.00;99.90;;;-144.05;52.13;125687.94;4930497;29;20544;-91
2022/09/12 21:22:59;;;;;;;4.88;3.28;;;19.00;99.90;;;-144.05;52.11;125687.94;4930580;29;20064;-88
2022/09/12 21:25:26;;;;;;;3.80;3.35;;;19.00;99.90;;;-144.05;52.27;125687.94;4930190;29;20035;-90
2022/09/12 21:27:52;;;;;;;5.60;3.28;;;19.00;99.90;;;-144.05;51.88;125687.94;4931925;29;20098;-90
2022/09/12 21:30:18;;;;;;;3.17;2.75;;;19.10;99.90;;;-144.05;51.63;125687.94;4929290;29;20126;-89